Rochelle, IL

11:33 AM CDT on October 01, 2016 (GMT -0500)
MesoWest | | Change Station

Elev 782 ft 41.90 °N, 89.13 °W | Updated 1 hour ago

Overcast
Overcast
62.0 °F
Feels Like 62.0 °F
N
0.0
Wind Variable Wind from North
Gusts 0.0 mph

Today
High -- | Low -- °F
--% Chance of Precip.
Yesterday
High -- | Low -- °F
Precip. -- in
Pressure 30.05 in
Visibility 10.0 miles
Clouds Mostly Cloudy 1500 ft
Overcast 2500 ft
Dew Point Not available.
Humidity Not available.
Rainfall in
Snow Depth Not available.
6:54 AM 6:37 PM
New Moon, 0% visible
METAR KRPJ 011615Z AUTO 02010KT 10SM BKN015 OVC025 17/14 A3005 RMK AO2 LTG DSNT E T01720143
Pressure 30.05 in
Visibility 10.0 miles
Clouds Mostly Cloudy 1500 ft
Overcast 2500 ft
Dew Point Not available.
Humidity Not available.
Rainfall in
Snow Depth Not available.
6:54 AM 6:37 PM
New Moon, 0% visible
METAR KRPJ 011615Z AUTO 02010KT 10SM BKN015 OVC025 17/14 A3005 RMK AO2 LTG DSNT E T01720143

10-Day Weather Forecast

Almanac

Astronomy

Oct. 01, 2016 Rise Set
Actual Time
Civil Twilight
Nautical Twilight
Astronomical Twilight
Moon
Length of Visible Light
Length of Day
Tomorrow will be .
, % of the Moon is Illuminated

Today's Extremes

State Highs State Lows

Community

WunderPhotos

Upload Photos

1,942,962 photos uploaded!

WunderBlog® & News

Nearby

Air Quality

  Air Quality AQ Index Pollutant
Not available.

Snow Depth

Station Depth Elevation

Earthquake Activity

City Distance Mag. Time & Date
Minimum magnitude displayed is 2.5.

Coastal Water Temperatures

Place Temperature

Stations

Nearby Weather Stations

Station Location Temp. Windchill Dew Point Humidity Wind Precip. Elev Updated Type
                   

Watches & Warnings

There are currently no watches in effect.